Talitha — ZCAN7 — position and weather

sailwx.info

Track history (hours):
 
Tides and Currents Weather Stations Pressure Air Temp Water Temp Dewpoint Dewpoint Depression Visibility Wind Speed Wind Dir Waves Ship Positions

Talitha

Last reported at 2015-Mar-02 10:30 UTC. Time now 2015-Mar-03 11:15 UTC.
Position N 17°01' W 062°03'.

Length 80 m; draft 4.7 m.

Type: Pleasure craft. MMSI: 310051000.

Date/timePositionNaut miles runAvg speedWind from/ knotsBaromVisibWave heightAir tempDewpointWater temp
2015-Mar-02 10:30N 17°01' W 062°03'1112.1
2015-Mar-02 09:33N 16°59' W 061°51'4 3.8
2015-Mar-02 08:33N 17°01' W 061°47'0 0.0
2015-Mar-02 07:33N 17°01' W 061°47'0 0.0
2015-Mar-02 06:33N 17°01' W 061°47'0 0.0
2015-Mar-02 05:32N 17°01' W 061°47'0 0.0
2015-Mar-02 04:32N 17°01' W 061°47'0 0.0
2015-Mar-02 03:32N 17°01' W 061°47'0 0.0
2015-Mar-02 02:32N 17°01' W 061°47'0 0.0
2015-Mar-02 01:32N 17°01' W 061°47'0 0.0
2015-Mar-02 00:32N 17°01' W 061°47'1 1.2
2015-Mar-01 23:32N 17°00' W 061°46'4 3.8
2015-Mar-01 22:33N 17°00' W 061°42'4 4.0
2015-Mar-01 21:33N 17°04' W 061°40'0 0.0
2015-Mar-01 20:30N 17°04' W 061°40'0 0.0
2015-Mar-01 19:33N 17°04' W 061°40'0 0.0
2015-Mar-01 18:33N 17°04' W 061°40'0 0.0
2015-Mar-01 17:33N 17°04' W 061°40'0 0.0
2015-Mar-01 16:33N 17°04' W 061°40'1 1.1
2015-Mar-01 15:33N 17°04' W 061°39'8 7.8
2015-Mar-01 14:33N 16°60' W 061°46'1 1.1
2015-Mar-01 13:31N 17°01' W 061°47'0 0.0
2015-Mar-01 12:31N 17°01' W 061°47'1 0.7
2015-Mar-01 11:32N 17°01' W 061°46'0 0.0
2015-Mar-01 10:32N 17°01' W 061°46'0 0.0
2015-Mar-01 09:32N 17°01' W 061°46'0 0.0
2015-Mar-01 08:32N 17°01' W 061°46'0 0.0
2015-Mar-01 07:32N 17°01' W 061°46'0 0.0
2015-Mar-01 06:32N 17°01' W 061°46'0 0.0
2015-Mar-01 05:32N 17°01' W 061°46'0 0.0
2015-Mar-01 04:32N 17°01' W 061°46'0 0.0
2015-Mar-01 03:32N 17°01' W 061°46'0 0.0
2015-Mar-01 02:32N 17°01' W 061°46'0 0.0
2015-Mar-01 01:32N 17°01' W 061°46'0 0.0
2015-Mar-01 00:32N 17°01' W 061°46'0 0.0
2015-Feb-28 23:32N 17°01' W 061°46'0 0.0
2015-Feb-28 22:32N 17°01' W 061°46'0 0.0
2015-Feb-28 21:32N 17°01' W 061°46'0 0.0
2015-Feb-28 20:32N 17°01' W 061°46'0 0.0
2015-Feb-28 19:32N 17°01' W 061°46'0 0.0
2015-Feb-28 18:32N 17°01' W 061°46'0 0.0
2015-Feb-28 17:32N 17°01' W 061°46'0 0.0
2015-Feb-28 16:32N 17°01' W 061°46'0 0.0
2015-Feb-28 15:32N 17°01' W 061°46'0 0.0
2015-Feb-28 14:32N 17°01' W 061°46'0 0.0
2015-Feb-28 13:32N 17°01' W 061°46'0 0.0
2015-Feb-28 12:32N 17°01' W 061°46'0 0.0
2015-Feb-28 11:32N 17°01' W 061°46'0 0.0
2015-Feb-28 10:32N 17°01' W 061°46'0 0.0
2015-Feb-28 09:32N 17°01' W 061°46'0 0.0
2015-Feb-28 08:32N 17°01' W 061°46'0 0.0
2015-Feb-28 07:32N 17°01' W 061°46'0 0.0
2015-Feb-28 06:32N 17°01' W 061°46'0 0.0
2015-Feb-28 05:32N 17°01' W 061°46'0 0.0
2015-Feb-28 04:32N 17°01' W 061°46'0 0.0
2015-Feb-28 03:32N 17°01' W 061°46'0 0.0
2015-Feb-28 02:32N 17°01' W 061°46'0 0.0
2015-Feb-28 01:32N 17°01' W 061°46'0 0.0
2015-Feb-28 00:32N 17°01' W 061°46'0 0.0
2015-Feb-27 23:32N 17°01' W 061°46'0 0.0
2015-Feb-27 22:32N 17°01' W 061°46'0 0.0
2015-Feb-27 21:32N 17°01' W 061°46'0 0.0
2015-Feb-27 20:32N 17°01' W 061°46'0 0.0
2015-Feb-27 19:32N 17°01' W 061°46'0 0.0
2015-Feb-27 18:32N 17°01' W 061°46'0 0.0
2015-Feb-27 17:32N 17°01' W 061°46'0 0.0
2015-Feb-27 16:32N 17°01' W 061°46'0 0.0
2015-Feb-27 15:32N 17°01' W 061°46'0 0.0
2015-Feb-27 14:32N 17°01' W 061°46'0 0.0
2015-Feb-27 13:32N 17°01' W 061°46'0 0.0
2015-Feb-27 12:32N 17°01' W 061°46'0 0.0
2015-Feb-27 11:32N 17°01' W 061°46'0 0.0
2015-Feb-27 10:32N 17°01' W 061°46'0 0.0
2015-Feb-27 09:32N 17°01' W 061°46'0 0.0
2015-Feb-27 08:32N 17°01' W 061°46'0 0.0
2015-Feb-27 07:32N 17°01' W 061°46'0 0.0
2015-Feb-27 06:32N 17°01' W 061°46'0 0.0
2015-Feb-27 05:32N 17°01' W 061°46'0 0.0
2015-Feb-27 04:32N 17°01' W 061°46'0 0.0
2015-Feb-27 03:32N 17°01' W 061°46'0 0.0
2015-Feb-27 02:31N 17°01' W 061°46'0 0.0
2015-Feb-27 01:31N 17°01' W 061°46'0 0.0
2015-Feb-27 00:31N 17°01' W 061°46'0 0.0
2015-Feb-26 20:31N 17°01' W 061°46'0 0.0
2015-Feb-26 19:31N 17°01' W 061°46'0 0.0
2015-Feb-26 18:31N 17°01' W 061°46'0 0.0
2015-Feb-26 17:31N 17°01' W 061°46'0 0.0
2015-Feb-26 16:31N 17°01' W 061°46'0 0.0
2015-Feb-26 15:31N 17°01' W 061°46'0 0.0
2015-Feb-26 14:31N 17°01' W 061°46'0 0.0
2015-Feb-26 13:31N 17°01' W 061°46'0 0.0
2015-Feb-26 12:31N 17°01' W 061°46'0 0.0
2015-Feb-26 11:31N 17°01' W 061°46'0 0.0
2015-Feb-25 20:31N 17°01' W 061°46'0 0.0
2015-Feb-25 19:31N 17°01' W 061°46'0 0.0
2015-Feb-25 18:31N 17°01' W 061°46'0 0.0
2015-Feb-25 17:31N 17°01' W 061°46'0 0.0
2015-Feb-25 16:31N 17°01' W 061°46'0 0.0
2015-Feb-25 15:31N 17°01' W 061°46'0 0.0
2015-Feb-25 14:31N 17°01' W 061°46'0 0.0
2015-Feb-25 13:31N 17°01' W 061°46'0 0.0
2015-Feb-25 12:31N 17°01' W 061°46'0 0.0
2015-Feb-25 11:31N 17°01' W 061°46'0 0.0
2015-Feb-25 10:31N 17°01' W 061°46'0 0.0
2015-Feb-25 09:31N 17°01' W 061°46'0 0.0
2015-Feb-25 08:31N 17°01' W 061°46'0 0.0
2015-Feb-25 07:31N 17°01' W 061°46'0 0.0
2015-Feb-25 06:31N 17°01' W 061°46'0 0.0
2015-Feb-25 05:31N 17°01' W 061°46'0 0.0
2015-Feb-25 04:31N 17°01' W 061°46'0 0.0
2015-Feb-25 03:31N 17°01' W 061°46'0 0.0
2015-Feb-25 02:31N 17°01' W 061°46'0 0.0
2015-Feb-25 01:31N 17°01' W 061°46'0 0.0
2015-Feb-25 00:31N 17°01' W 061°46'0 0.0
2015-Feb-24 23:31N 17°01' W 061°46'0 0.0
2015-Feb-24 22:31N 17°01' W 061°46'0 0.0
2015-Feb-24 21:31N 17°01' W 061°46'  
Track history (hours):
 
Tides and Currents Weather Stations Pressure Air Temp Water Temp Dewpoint Dewpoint Depression Visibility Wind Speed Wind Dir Waves Ship Positions

Talitha

Last reported at 2015-Mar-02 10:30 UTC. Time now 2015-Mar-03 11:15 UTC.
Position N 17°01' W 062°03'.

Length 80 m; draft 4.7 m.

Type: Pleasure craft. MMSI: 310051000.

Date/timePositionNaut miles runAvg speedWind from/ knotsBaromVisibWave heightAir tempDewpointWater temp
2015-Mar-02 10:30N 17°01' W 062°03'1112.1
2015-Mar-02 09:33N 16°59' W 061°51'4 3.8
2015-Mar-02 08:33N 17°01' W 061°47'0 0.0
2015-Mar-02 07:33N 17°01' W 061°47'0 0.0
2015-Mar-02 06:33N 17°01' W 061°47'0 0.0
2015-Mar-02 05:32N 17°01' W 061°47'0 0.0
2015-Mar-02 04:32N 17°01' W 061°47'0 0.0
2015-Mar-02 03:32N 17°01' W 061°47'0 0.0
2015-Mar-02 02:32N 17°01' W 061°47'0 0.0
2015-Mar-02 01:32N 17°01' W 061°47'0 0.0
2015-Mar-02 00:32N 17°01' W 061°47'1 1.2
2015-Mar-01 23:32N 17°00' W 061°46'4 3.8
2015-Mar-01 22:33N 17°00' W 061°42'4 4.0
2015-Mar-01 21:33N 17°04' W 061°40'0 0.0
2015-Mar-01 20:30N 17°04' W 061°40'0 0.0
2015-Mar-01 19:33N 17°04' W 061°40'0 0.0
2015-Mar-01 18:33N 17°04' W 061°40'0 0.0
2015-Mar-01 17:33N 17°04' W 061°40'0 0.0
2015-Mar-01 16:33N 17°04' W 061°40'1 1.1
2015-Mar-01 15:33N 17°04' W 061°39'8 7.8
2015-Mar-01 14:33N 16°60' W 061°46'1 1.1
2015-Mar-01 13:31N 17°01' W 061°47'0 0.0
2015-Mar-01 12:31N 17°01' W 061°47'1 0.7
2015-Mar-01 11:32N 17°01' W 061°46'0 0.0
2015-Mar-01 10:32N 17°01' W 061°46'0 0.0
2015-Mar-01 09:32N 17°01' W 061°46'0 0.0
2015-Mar-01 08:32N 17°01' W 061°46'0 0.0
2015-Mar-01 07:32N 17°01' W 061°46'0 0.0
2015-Mar-01 06:32N 17°01' W 061°46'0 0.0
2015-Mar-01 05:32N 17°01' W 061°46'0 0.0
2015-Mar-01 04:32N 17°01' W 061°46'0 0.0
2015-Mar-01 03:32N 17°01' W 061°46'0 0.0
2015-Mar-01 02:32N 17°01' W 061°46'0 0.0
2015-Mar-01 01:32N 17°01' W 061°46'0 0.0
2015-Mar-01 00:32N 17°01' W 061°46'0 0.0
2015-Feb-28 23:32N 17°01' W 061°46'0 0.0
2015-Feb-28 22:32N 17°01' W 061°46'0 0.0
2015-Feb-28 21:32N 17°01' W 061°46'0 0.0
2015-Feb-28 20:32N 17°01' W 061°46'0 0.0
2015-Feb-28 19:32N 17°01' W 061°46'0 0.0
2015-Feb-28 18:32N 17°01' W 061°46'0 0.0
2015-Feb-28 17:32N 17°01' W 061°46'0 0.0
2015-Feb-28 16:32N 17°01' W 061°46'0 0.0
2015-Feb-28 15:32N 17°01' W 061°46'0 0.0
2015-Feb-28 14:32N 17°01' W 061°46'0 0.0
2015-Feb-28 13:32N 17°01' W 061°46'0 0.0
2015-Feb-28 12:32N 17°01' W 061°46'0 0.0
2015-Feb-28 11:32N 17°01' W 061°46'0 0.0
2015-Feb-28 10:32N 17°01' W 061°46'0 0.0
2015-Feb-28 09:32N 17°01' W 061°46'0 0.0
2015-Feb-28 08:32N 17°01' W 061°46'0 0.0
2015-Feb-28 07:32N 17°01' W 061°46'0 0.0
2015-Feb-28 06:32N 17°01' W 061°46'0 0.0
2015-Feb-28 05:32N 17°01' W 061°46'0 0.0
2015-Feb-28 04:32N 17°01' W 061°46'0 0.0
2015-Feb-28 03:32N 17°01' W 061°46'0 0.0
2015-Feb-28 02:32N 17°01' W 061°46'0 0.0
2015-Feb-28 01:32N 17°01' W 061°46'0 0.0
2015-Feb-28 00:32N 17°01' W 061°46'0 0.0
2015-Feb-27 23:32N 17°01' W 061°46'0 0.0
2015-Feb-27 22:32N 17°01' W 061°46'0 0.0
2015-Feb-27 21:32N 17°01' W 061°46'0 0.0
2015-Feb-27 20:32N 17°01' W 061°46'0 0.0
2015-Feb-27 19:32N 17°01' W 061°46'0 0.0
2015-Feb-27 18:32N 17°01' W 061°46'0 0.0
2015-Feb-27 17:32N 17°01' W 061°46'0 0.0
2015-Feb-27 16:32N 17°01' W 061°46'0 0.0
2015-Feb-27 15:32N 17°01' W 061°46'0 0.0
2015-Feb-27 14:32N 17°01' W 061°46'0 0.0
2015-Feb-27 13:32N 17°01' W 061°46'0 0.0
2015-Feb-27 12:32N 17°01' W 061°46'0 0.0
2015-Feb-27 11:32N 17°01' W 061°46'0 0.0
2015-Feb-27 10:32N 17°01' W 061°46'0 0.0
2015-Feb-27 09:32N 17°01' W 061°46'0 0.0
2015-Feb-27 08:32N 17°01' W 061°46'0 0.0
2015-Feb-27 07:32N 17°01' W 061°46'0 0.0
2015-Feb-27 06:32N 17°01' W 061°46'0 0.0
2015-Feb-27 05:32N 17°01' W 061°46'0 0.0
2015-Feb-27 04:32N 17°01' W 061°46'0 0.0
2015-Feb-27 03:32N 17°01' W 061°46'0 0.0
2015-Feb-27 02:31N 17°01' W 061°46'0 0.0
2015-Feb-27 01:31N 17°01' W 061°46'0 0.0
2015-Feb-27 00:31N 17°01' W 061°46'0 0.0
2015-Feb-26 20:31N 17°01' W 061°46'0 0.0
2015-Feb-26 19:31N 17°01' W 061°46'0 0.0
2015-Feb-26 18:31N 17°01' W 061°46'0 0.0
2015-Feb-26 17:31N 17°01' W 061°46'0 0.0
2015-Feb-26 16:31N 17°01' W 061°46'0 0.0
2015-Feb-26 15:31N 17°01' W 061°46'0 0.0
2015-Feb-26 14:31N 17°01' W 061°46'0 0.0
2015-Feb-26 13:31N 17°01' W 061°46'0 0.0
2015-Feb-26 12:31N 17°01' W 061°46'0 0.0
2015-Feb-26 11:31N 17°01' W 061°46'0 0.0
2015-Feb-25 20:31N 17°01' W 061°46'0 0.0
2015-Feb-25 19:31N 17°01' W 061°46'0 0.0
2015-Feb-25 18:31N 17°01' W 061°46'0 0.0
2015-Feb-25 17:31N 17°01' W 061°46'0 0.0
2015-Feb-25 16:31N 17°01' W 061°46'0 0.0
2015-Feb-25 15:31N 17°01' W 061°46'0 0.0
2015-Feb-25 14:31N 17°01' W 061°46'0 0.0
2015-Feb-25 13:31N 17°01' W 061°46'0 0.0
2015-Feb-25 12:31N 17°01' W 061°46'0 0.0
2015-Feb-25 11:31N 17°01' W 061°46'0 0.0
2015-Feb-25 10:31N 17°01' W 061°46'0 0.0
2015-Feb-25 09:31N 17°01' W 061°46'0 0.0
2015-Feb-25 08:31N 17°01' W 061°46'0 0.0
2015-Feb-25 07:31N 17°01' W 061°46'0 0.0
2015-Feb-25 06:31N 17°01' W 061°46'0 0.0
2015-Feb-25 05:31N 17°01' W 061°46'0 0.0
2015-Feb-25 04:31N 17°01' W 061°46'0 0.0
2015-Feb-25 03:31N 17°01' W 061°46'0 0.0
2015-Feb-25 02:31N 17°01' W 061°46'0 0.0
2015-Feb-25 01:31N 17°01' W 061°46'0 0.0
2015-Feb-25 00:31N 17°01' W 061°46'0 0.0
2015-Feb-24 23:31N 17°01' W 061°46'0 0.0
2015-Feb-24 22:31N 17°01' W 061°46'0 0.0
2015-Feb-24 21:31N 17°01' W 061°46'  

Dump ship's entire track history